sensor_id;sensor_type;location;lat;lon;timestamp;P1;durP1;ratioP1;P2;durP2;ratioP2
12467;SDS011;57850;52.922;6.256;2023-04-29T00:00:59;36.65;;;25.02;;
12467;SDS011;57850;52.922;6.256;2023-04-29T00:03:26;38.10;;;25.88;;
12467;SDS011;57850;52.922;6.256;2023-04-29T00:05:56;36.38;;;26.02;;
12467;SDS011;57850;52.922;6.256;2023-04-29T00:08:24;40.95;;;26.80;;
12467;SDS011;57850;52.922;6.256;2023-04-29T00:10:50;41.60;;;26.90;;
12467;SDS011;57850;52.922;6.256;2023-04-29T00:13:17;40.15;;;26.23;;
12467;SDS011;57850;52.922;6.256;2023-04-29T00:15:44;39.08;;;26.60;;
12467;SDS011;57850;52.922;6.256;2023-04-29T00:18:10;41.65;;;27.40;;
12467;SDS011;57850;52.922;6.256;2023-04-29T00:20:38;41.13;;;26.27;;
12467;SDS011;57850;52.922;6.256;2023-04-29T00:23:04;39.78;;;26.45;;
12467;SDS011;57850;52.922;6.256;2023-04-29T00:25:33;42.40;;;26.50;;
12467;SDS011;57850;52.922;6.256;2023-04-29T00:28:00;41.20;;;24.95;;
12467;SDS011;57850;52.922;6.256;2023-04-29T00:30:27;38.50;;;25.05;;
12467;SDS011;57850;52.922;6.256;2023-04-29T00:32:54;44.28;;;27.33;;
12467;SDS011;57850;52.922;6.256;2023-04-29T00:35:20;40.15;;;25.67;;
12467;SDS011;57850;52.922;6.256;2023-04-29T00:37:47;46.17;;;26.63;;
12467;SDS011;57850;52.922;6.256;2023-04-29T00:40:14;50.00;;;26.50;;
12467;SDS011;57850;52.922;6.256;2023-04-29T00:42:42;41.47;;;26.90;;
12467;SDS011;57850;52.922;6.256;2023-04-29T00:45:09;44.00;;;27.42;;
12467;SDS011;57850;52.922;6.256;2023-04-29T00:47:36;42.47;;;27.75;;
12467;SDS011;57850;52.922;6.256;2023-04-29T00:50:03;42.28;;;26.88;;
12467;SDS011;57850;52.922;6.256;2023-04-29T00:52:31;47.15;;;28.27;;
12467;SDS011;57850;52.922;6.256;2023-04-29T00:54:59;42.35;;;26.55;;
12467;SDS011;57850;52.922;6.256;2023-04-29T00:57:27;44.38;;;25.80;;
12467;SDS011;57850;52.922;6.256;2023-04-29T00:59:55;39.90;;;25.55;;
12467;SDS011;57850;52.922;6.256;2023-04-29T01:02:22;39.42;;;25.63;;
12467;SDS011;57850;52.922;6.256;2023-04-29T01:04:50;40.90;;;24.42;;
12467;SDS011;57850;52.922;6.256;2023-04-29T01:07:18;42.85;;;25.67;;
12467;SDS011;57850;52.922;6.256;2023-04-29T01:09:53;40.60;;;26.95;;
12467;SDS011;57850;52.922;6.256;2023-04-29T01:12:31;41.45;;;25.75;;
12467;SDS011;57850;52.922;6.256;2023-04-29T01:15:04;43.70;;;25.65;;
12467;SDS011;57850;52.922;6.256;2023-04-29T01:17:36;43.83;;;26.33;;
12467;SDS011;57850;52.922;6.256;2023-04-29T01:20:06;34.35;;;25.23;;
12467;SDS011;57850;52.922;6.256;2023-04-29T01:22:34;39.08;;;24.88;;
12467;SDS011;57850;52.922;6.256;2023-04-29T01:25:02;45.53;;;26.25;;
12467;SDS011;57850;52.922;6.256;2023-04-29T01:27:30;39.55;;;24.55;;
12467;SDS011;57850;52.922;6.256;2023-04-29T01:30:06;40.05;;;24.85;;
12467;SDS011;57850;52.922;6.256;2023-04-29T01:32:42;40.95;;;24.63;;
12467;SDS011;57850;52.922;6.256;2023-04-29T01:35:22;37.13;;;24.23;;
12467;SDS011;57850;52.922;6.256;2023-04-29T01:38:05;38.35;;;24.98;;
12467;SDS011;57850;52.922;6.256;2023-04-29T01:40:46;41.97;;;23.65;;
12467;SDS011;57850;52.922;6.256;2023-04-29T01:43:20;35.92;;;22.92;;
12467;SDS011;57850;52.922;6.256;2023-04-29T01:45:49;35.10;;;23.63;;
12467;SDS011;57850;52.922;6.256;2023-04-29T01:48:20;32.30;;;23.02;;
12467;SDS011;57850;52.922;6.256;2023-04-29T01:50:46;37.00;;;23.67;;
12467;SDS011;57850;52.922;6.256;2023-04-29T01:53:13;34.17;;;22.45;;
12467;SDS011;57850;52.922;6.256;2023-04-29T01:55:39;37.75;;;22.90;;
12467;SDS011;57850;52.922;6.256;2023-04-29T01:58:09;36.15;;;22.88;;
12467;SDS011;57850;52.922;6.256;2023-04-29T02:00:35;30.60;;;21.35;;
12467;SDS011;57850;52.922;6.256;2023-04-29T02:03:02;33.38;;;20.95;;
12467;SDS011;57850;52.922;6.256;2023-04-29T02:05:29;37.78;;;21.08;;
12467;SDS011;57850;52.922;6.256;2023-04-29T02:07:57;32.53;;;20.98;;
12467;SDS011;57850;52.922;6.256;2023-04-29T02:10:24;34.25;;;21.38;;
12467;SDS011;57850;52.922;6.256;2023-04-29T02:12:51;30.50;;;19.90;;
12467;SDS011;57850;52.922;6.256;2023-04-29T02:15:20;36.50;;;20.80;;
12467;SDS011;57850;52.922;6.256;2023-04-29T02:17:46;32.25;;;20.83;;
12467;SDS011;57850;52.922;6.256;2023-04-29T02:20:13;32.42;;;21.00;;
12467;SDS011;57850;52.922;6.256;2023-04-29T02:22:40;32.13;;;21.10;;
12467;SDS011;57850;52.922;6.256;2023-04-29T02:25:06;30.80;;;19.50;;
12467;SDS011;57850;52.922;6.256;2023-04-29T02:27:33;32.72;;;20.58;;
12467;SDS011;57850;52.922;6.256;2023-04-29T02:30:00;31.17;;;18.90;;
12467;SDS011;57850;52.922;6.256;2023-04-29T02:32:30;31.08;;;20.80;;
12467;SDS011;57850;52.922;6.256;2023-04-29T02:34:57;31.70;;;20.80;;
12467;SDS011;57850;52.922;6.256;2023-04-29T02:37:23;29.55;;;20.27;;
12467;SDS011;57850;52.922;6.256;2023-04-29T02:39:50;30.77;;;20.60;;
12467;SDS011;57850;52.922;6.256;2023-04-29T02:42:16;30.38;;;19.55;;
12467;SDS011;57850;52.922;6.256;2023-04-29T02:44:44;31.67;;;20.15;;
12467;SDS011;57850;52.922;6.256;2023-04-29T02:47:10;30.42;;;20.23;;
12467;SDS011;57850;52.922;6.256;2023-04-29T02:49:38;25.17;;;19.60;;
12467;SDS011;57850;52.922;6.256;2023-04-29T02:52:05;26.50;;;18.83;;
12467;SDS011;57850;52.922;6.256;2023-04-29T02:54:31;28.27;;;19.38;;
12467;SDS011;57850;52.922;6.256;2023-04-29T02:56:59;34.25;;;19.20;;
12467;SDS011;57850;52.922;6.256;2023-04-29T02:59:25;28.50;;;19.67;;
12467;SDS011;57850;52.922;6.256;2023-04-29T03:01:52;27.42;;;19.52;;
12467;SDS011;57850;52.922;6.256;2023-04-29T03:04:19;28.08;;;18.95;;
12467;SDS011;57850;52.922;6.256;2023-04-29T03:06:47;33.22;;;18.60;;
12467;SDS011;57850;52.922;6.256;2023-04-29T03:09:13;26.88;;;19.38;;
12467;SDS011;57850;52.922;6.256;2023-04-29T03:11:40;24.83;;;18.50;;
12467;SDS011;57850;52.922;6.256;2023-04-29T03:14:06;30.70;;;20.33;;
12467;SDS011;57850;52.922;6.256;2023-04-29T03:16:33;28.75;;;18.95;;
12467;SDS011;57850;52.922;6.256;2023-04-29T03:18:59;34.28;;;20.40;;
12467;SDS011;57850;52.922;6.256;2023-04-29T03:21:26;29.40;;;19.02;;
12467;SDS011;57850;52.922;6.256;2023-04-29T03:23:55;27.65;;;19.88;;
12467;SDS011;57850;52.922;6.256;2023-04-29T03:26:22;32.25;;;19.23;;
12467;SDS011;57850;52.922;6.256;2023-04-29T03:28:49;32.10;;;19.80;;
12467;SDS011;57850;52.922;6.256;2023-04-29T03:31:16;32.42;;;19.55;;
12467;SDS011;57850;52.922;6.256;2023-04-29T03:33:44;34.20;;;20.88;;
12467;SDS011;57850;52.922;6.256;2023-04-29T03:36:11;31.27;;;20.42;;
12467;SDS011;57850;52.922;6.256;2023-04-29T03:38:38;30.38;;;19.40;;
12467;SDS011;57850;52.922;6.256;2023-04-29T03:41:06;28.80;;;20.85;;
12467;SDS011;57850;52.922;6.256;2023-04-29T03:43:32;32.05;;;19.55;;
12467;SDS011;57850;52.922;6.256;2023-04-29T03:45:59;30.42;;;20.30;;
12467;SDS011;57850;52.922;6.256;2023-04-29T03:48:25;37.85;;;20.60;;
12467;SDS011;57850;52.922;6.256;2023-04-29T03:50:52;32.63;;;20.00;;
12467;SDS011;57850;52.922;6.256;2023-04-29T03:53:19;32.22;;;19.20;;
12467;SDS011;57850;52.922;6.256;2023-04-29T03:55:46;31.02;;;19.17;;
12467;SDS011;57850;52.922;6.256;2023-04-29T03:58:14;29.25;;;19.05;;
12467;SDS011;57850;52.922;6.256;2023-04-29T04:00:40;31.15;;;19.92;;
12467;SDS011;57850;52.922;6.256;2023-04-29T04:03:07;28.80;;;19.75;;
12467;SDS011;57850;52.922;6.256;2023-04-29T04:05:33;32.42;;;19.75;;
12467;SDS011;57850;52.922;6.256;2023-04-29T04:08:00;32.08;;;18.88;;
12467;SDS011;57850;52.922;6.256;2023-04-29T04:10:27;29.92;;;19.80;;
12467;SDS011;57850;52.922;6.256;2023-04-29T04:12:54;27.75;;;17.90;;
12467;SDS011;57850;52.922;6.256;2023-04-29T04:15:22;27.75;;;19.58;;
12467;SDS011;57850;52.922;6.256;2023-04-29T04:17:50;33.33;;;19.25;;
12467;SDS011;57850;52.922;6.256;2023-04-29T04:20:16;30.33;;;18.25;;
12467;SDS011;57850;52.922;6.256;2023-04-29T04:22:43;28.20;;;18.50;;
12467;SDS011;57850;52.922;6.256;2023-04-29T04:25:10;31.77;;;19.42;;
12467;SDS011;57850;52.922;6.256;2023-04-29T04:27:36;26.33;;;18.05;;
12467;SDS011;57850;52.922;6.256;2023-04-29T04:30:03;29.55;;;18.42;;
12467;SDS011;57850;52.922;6.256;2023-04-29T04:32:31;28.55;;;17.33;;
12467;SDS011;57850;52.922;6.256;2023-04-29T04:34:58;26.85;;;17.50;;
12467;SDS011;57850;52.922;6.256;2023-04-29T04:37:25;29.73;;;16.15;;
12467;SDS011;57850;52.922;6.256;2023-04-29T04:39:52;21.85;;;16.27;;
12467;SDS011;57850;52.922;6.256;2023-04-29T04:42:18;29.33;;;18.23;;
12467;SDS011;57850;52.922;6.256;2023-04-29T04:44:45;25.13;;;17.48;;
12467;SDS011;57850;52.922;6.256;2023-04-29T04:47:11;23.52;;;15.80;;
12467;SDS011;57850;52.922;6.256;2023-04-29T04:49:39;25.27;;;16.85;;
12467;SDS011;57850;52.922;6.256;2023-04-29T04:52:06;24.90;;;15.95;;
12467;SDS011;57850;52.922;6.256;2023-04-29T04:54:32;26.83;;;16.17;;
12467;SDS011;57850;52.922;6.256;2023-04-29T04:56:59;20.80;;;14.93;;
12467;SDS011;57850;52.922;6.256;2023-04-29T04:59:27;22.70;;;16.15;;
12467;SDS011;57850;52.922;6.256;2023-04-29T05:01:53;27.48;;;15.43;;
12467;SDS011;57850;52.922;6.256;2023-04-29T05:04:20;23.83;;;14.82;;
12467;SDS011;57850;52.922;6.256;2023-04-29T05:06:48;23.70;;;15.23;;
12467;SDS011;57850;52.922;6.256;2023-04-29T05:09:15;23.80;;;13.45;;
12467;SDS011;57850;52.922;6.256;2023-04-29T05:11:41;21.25;;;14.40;;
12467;SDS011;57850;52.922;6.256;2023-04-29T05:14:08;21.75;;;14.35;;
12467;SDS011;57850;52.922;6.256;2023-04-29T05:16:34;24.08;;;14.18;;
12467;SDS011;57850;52.922;6.256;2023-04-29T05:19:01;21.98;;;14.32;;
12467;SDS011;57850;52.922;6.256;2023-04-29T05:21:27;19.90;;;14.07;;
12467;SDS011;57850;52.922;6.256;2023-04-29T05:23:56;19.65;;;13.48;;
12467;SDS011;57850;52.922;6.256;2023-04-29T05:26:23;20.58;;;12.93;;
12467;SDS011;57850;52.922;6.256;2023-04-29T05:28:49;19.92;;;12.93;;
12467;SDS011;57850;52.922;6.256;2023-04-29T05:31:16;19.80;;;12.48;;
12467;SDS011;57850;52.922;6.256;2023-04-29T05:33:42;17.70;;;11.32;;
12467;SDS011;57850;52.922;6.256;2023-04-29T05:36:09;19.38;;;10.77;;
12467;SDS011;57850;52.922;6.256;2023-04-29T05:38:35;15.02;;;11.05;;
12467;SDS011;57850;52.922;6.256;2023-04-29T05:41:03;18.23;;;11.00;;
12467;SDS011;57850;52.922;6.256;2023-04-29T05:43:30;16.90;;;10.48;;
12467;SDS011;57850;52.922;6.256;2023-04-29T05:45:57;17.45;;;10.68;;
12467;SDS011;57850;52.922;6.256;2023-04-29T05:48:23;15.48;;;9.95;;
12467;SDS011;57850;52.922;6.256;2023-04-29T05:50:49;14.80;;;9.73;;
12467;SDS011;57850;52.922;6.256;2023-04-29T05:53:17;21.92;;;13.40;;
12467;SDS011;57850;52.922;6.256;2023-04-29T05:55:44;15.40;;;10.88;;
12467;SDS011;57850;52.922;6.256;2023-04-29T05:58:12;16.33;;;10.57;;
12467;SDS011;57850;52.922;6.256;2023-04-29T06:00:39;13.93;;;9.10;;
12467;SDS011;57850;52.922;6.256;2023-04-29T06:03:07;19.55;;;9.55;;
12467;SDS011;57850;52.922;6.256;2023-04-29T06:05:34;15.13;;;9.80;;
12467;SDS011;57850;52.922;6.256;2023-04-29T06:08:00;12.48;;;9.73;;
12467;SDS011;57850;52.922;6.256;2023-04-29T06:10:27;14.43;;;9.02;;
12467;SDS011;57850;52.922;6.256;2023-04-29T06:12:54;15.05;;;9.70;;
12467;SDS011;57850;52.922;6.256;2023-04-29T06:15:22;13.15;;;8.98;;
12467;SDS011;57850;52.922;6.256;2023-04-29T06:17:49;17.15;;;8.80;;
12467;SDS011;57850;52.922;6.256;2023-04-29T06:20:16;14.80;;;8.25;;
12467;SDS011;57850;52.922;6.256;2023-04-29T06:22:42;15.20;;;8.80;;
12467;SDS011;57850;52.922;6.256;2023-04-29T06:25:09;15.80;;;9.52;;
12467;SDS011;57850;52.922;6.256;2023-04-29T06:27:35;15.32;;;8.77;;
12467;SDS011;57850;52.922;6.256;2023-04-29T06:30:02;17.95;;;9.00;;
12467;SDS011;57850;52.922;6.256;2023-04-29T06:32:30;16.83;;;8.40;;
12467;SDS011;57850;52.922;6.256;2023-04-29T06:34:56;15.93;;;8.68;;
12467;SDS011;57850;52.922;6.256;2023-04-29T06:37:23;12.27;;;7.85;;
12467;SDS011;57850;52.922;6.256;2023-04-29T06:39:49;16.27;;;8.77;;
12467;SDS011;57850;52.922;6.256;2023-04-29T06:42:16;12.52;;;8.75;;
12467;SDS011;57850;52.922;6.256;2023-04-29T06:44:42;17.55;;;9.02;;
12467;SDS011;57850;52.922;6.256;2023-04-29T06:47:09;15.05;;;9.43;;
12467;SDS011;57850;52.922;6.256;2023-04-29T06:49:37;18.65;;;9.63;;
12467;SDS011;57850;52.922;6.256;2023-04-29T06:52:03;14.05;;;9.02;;
12467;SDS011;57850;52.922;6.256;2023-04-29T06:54:30;13.85;;;9.23;;
12467;SDS011;57850;52.922;6.256;2023-04-29T06:56:56;16.30;;;8.88;;
12467;SDS011;57850;52.922;6.256;2023-04-29T06:59:23;14.55;;;8.05;;
12467;SDS011;57850;52.922;6.256;2023-04-29T07:01:49;12.00;;;8.63;;
12467;SDS011;57850;52.922;6.256;2023-04-29T07:04:16;13.20;;;8.35;;
12467;SDS011;57850;52.922;6.256;2023-04-29T07:06:44;16.08;;;9.40;;
12467;SDS011;57850;52.922;6.256;2023-04-29T07:09:11;11.30;;;8.52;;
12467;SDS011;57850;52.922;6.256;2023-04-29T07:11:38;16.88;;;9.02;;
12467;SDS011;57850;52.922;6.256;2023-04-29T07:14:05;15.60;;;9.23;;
12467;SDS011;57850;52.922;6.256;2023-04-29T07:16:31;13.45;;;9.02;;
12467;SDS011;57850;52.922;6.256;2023-04-29T07:18:58;16.42;;;9.38;;
12467;SDS011;57850;52.922;6.256;2023-04-29T07:21:25;16.90;;;10.10;;
12467;SDS011;57850;52.922;6.256;2023-04-29T07:23:53;17.15;;;9.43;;
12467;SDS011;57850;52.922;6.256;2023-04-29T07:26:20;13.75;;;8.73;;
12467;SDS011;57850;52.922;6.256;2023-04-29T07:28:47;11.75;;;8.60;;
12467;SDS011;57850;52.922;6.256;2023-04-29T07:31:13;12.93;;;8.15;;
12467;SDS011;57850;52.922;6.256;2023-04-29T07:33:40;12.77;;;8.80;;
12467;SDS011;57850;52.922;6.256;2023-04-29T07:36:07;14.02;;;8.82;;
12467;SDS011;57850;52.922;6.256;2023-04-29T07:38:33;16.17;;;8.88;;
12467;SDS011;57850;52.922;6.256;2023-04-29T07:41:02;10.05;;;7.75;;
12467;SDS011;57850;52.922;6.256;2023-04-29T07:43:29;12.18;;;7.97;;
12467;SDS011;57850;52.922;6.256;2023-04-29T07:45:56;12.10;;;7.80;;
12467;SDS011;57850;52.922;6.256;2023-04-29T07:48:22;11.23;;;7.47;;
12467;SDS011;57850;52.922;6.256;2023-04-29T07:50:49;14.25;;;7.97;;
12467;SDS011;57850;52.922;6.256;2023-04-29T07:53:15;12.73;;;8.15;;
12467;SDS011;57850;52.922;6.256;2023-04-29T07:55:42;12.45;;;8.05;;
12467;SDS011;57850;52.922;6.256;2023-04-29T07:58:10;14.27;;;7.35;;
12467;SDS011;57850;52.922;6.256;2023-04-29T08:00:36;10.60;;;7.55;;
12467;SDS011;57850;52.922;6.256;2023-04-29T08:03:03;11.00;;;7.40;;
12467;SDS011;57850;52.922;6.256;2023-04-29T08:05:30;13.43;;;8.02;;
12467;SDS011;57850;52.922;6.256;2023-04-29T08:07:57;15.00;;;8.32;;
12467;SDS011;57850;52.922;6.256;2023-04-29T08:10:23;10.25;;;7.28;;
12467;SDS011;57850;52.922;6.256;2023-04-29T08:12:51;12.02;;;7.60;;
12467;SDS011;57850;52.922;6.256;2023-04-29T08:15:19;12.32;;;7.45;;
12467;SDS011;57850;52.922;6.256;2023-04-29T08:17:45;11.30;;;7.20;;
12467;SDS011;57850;52.922;6.256;2023-04-29T08:20:12;10.15;;;7.53;;
12467;SDS011;57850;52.922;6.256;2023-04-29T08:22:39;11.90;;;7.60;;
12467;SDS011;57850;52.922;6.256;2023-04-29T08:25:07;12.18;;;7.38;;
12467;SDS011;57850;52.922;6.256;2023-04-29T08:27:34;10.77;;;7.68;;
12467;SDS011;57850;52.922;6.256;2023-04-29T08:30:00;11.10;;;7.45;;
12467;SDS011;57850;52.922;6.256;2023-04-29T08:32:28;10.43;;;7.63;;
12467;SDS011;57850;52.922;6.256;2023-04-29T08:34:55;8.15;;;7.28;;
12467;SDS011;57850;52.922;6.256;2023-04-29T08:37:21;12.00;;;7.10;;
12467;SDS011;57850;52.922;6.256;2023-04-29T08:39:48;9.98;;;7.70;;
12467;SDS011;57850;52.922;6.256;2023-04-29T08:42:14;11.43;;;7.50;;
12467;SDS011;57850;52.922;6.256;2023-04-29T08:44:46;10.30;;;7.45;;
12467;SDS011;57850;52.922;6.256;2023-04-29T08:47:14;12.35;;;7.53;;
12467;SDS011;57850;52.922;6.256;2023-04-29T08:49:43;9.35;;;7.53;;
12467;SDS011;57850;52.922;6.256;2023-04-29T08:52:09;10.00;;;7.32;;
12467;SDS011;57850;52.922;6.256;2023-04-29T08:54:36;10.57;;;7.63;;
12467;SDS011;57850;52.922;6.256;2023-04-29T08:57:02;15.40;;;7.65;;
12467;SDS011;57850;52.922;6.256;2023-04-29T08:59:31;11.80;;;7.78;;
12467;SDS011;57850;52.922;6.256;2023-04-29T09:01:58;9.93;;;7.40;;
12467;SDS011;57850;52.922;6.256;2023-04-29T09:04:29;10.27;;;7.30;;
12467;SDS011;57850;52.922;6.256;2023-04-29T09:07:04;12.65;;;7.20;;
12467;SDS011;57850;52.922;6.256;2023-04-29T09:09:32;10.35;;;6.55;;
12467;SDS011;57850;52.922;6.256;2023-04-29T09:11:59;8.68;;;6.55;;
12467;SDS011;57850;52.922;6.256;2023-04-29T09:14:25;13.05;;;7.43;;
12467;SDS011;57850;52.922;6.256;2023-04-29T09:16:57;12.73;;;6.53;;
12467;SDS011;57850;52.922;6.256;2023-04-29T09:19:28;11.80;;;7.25;;
12467;SDS011;57850;52.922;6.256;2023-04-29T09:21:55;9.18;;;6.80;;
12467;SDS011;57850;52.922;6.256;2023-04-29T09:24:25;10.80;;;6.60;;
12467;SDS011;57850;52.922;6.256;2023-04-29T09:26:52;7.43;;;6.03;;
12467;SDS011;57850;52.922;6.256;2023-04-29T09:29:19;11.70;;;6.38;;
12467;SDS011;57850;52.922;6.256;2023-04-29T09:31:46;11.98;;;7.78;;
12467;SDS011;57850;52.922;6.256;2023-04-29T09:34:13;10.73;;;6.82;;
12467;SDS011;57850;52.922;6.256;2023-04-29T09:36:41;9.20;;;6.68;;
12467;SDS011;57850;52.922;6.256;2023-04-29T09:39:10;13.55;;;7.57;;
12467;SDS011;57850;52.922;6.256;2023-04-29T09:41:41;11.77;;;6.95;;
12467;SDS011;57850;52.922;6.256;2023-04-29T09:44:22;8.65;;;6.50;;
12467;SDS011;57850;52.922;6.256;2023-04-29T09:46:53;9.35;;;5.93;;
12467;SDS011;57850;52.922;6.256;2023-04-29T09:49:21;9.38;;;7.00;;
12467;SDS011;57850;52.922;6.256;2023-04-29T09:51:53;9.43;;;6.97;;
12467;SDS011;57850;52.922;6.256;2023-04-29T09:54:21;11.60;;;6.47;;
12467;SDS011;57850;52.922;6.256;2023-04-29T09:56:50;15.55;;;7.35;;
12467;SDS011;57850;52.922;6.256;2023-04-29T09:59:18;10.05;;;8.68;;
12467;SDS011;57850;52.922;6.256;2023-04-29T10:01:46;10.45;;;7.18;;
12467;SDS011;57850;52.922;6.256;2023-04-29T10:04:14;9.02;;;6.28;;
12467;SDS011;57850;52.922;6.256;2023-04-29T10:06:42;9.15;;;6.40;;
12467;SDS011;57850;52.922;6.256;2023-04-29T10:09:09;7.60;;;6.30;;
12467;SDS011;57850;52.922;6.256;2023-04-29T10:11:40;8.50;;;6.38;;
12467;SDS011;57850;52.922;6.256;2023-04-29T10:14:11;8.35;;;5.95;;
12467;SDS011;57850;52.922;6.256;2023-04-29T10:16:44;9.13;;;6.53;;
12467;SDS011;57850;52.922;6.256;2023-04-29T10:19:14;8.50;;;6.07;;
12467;SDS011;57850;52.922;6.256;2023-04-29T10:21:44;9.40;;;6.28;;
12467;SDS011;57850;52.922;6.256;2023-04-29T10:24:14;9.13;;;6.82;;
12467;SDS011;57850;52.922;6.256;2023-04-29T10:26:43;9.52;;;6.30;;
12467;SDS011;57850;52.922;6.256;2023-04-29T10:29:13;10.40;;;7.18;;
12467;SDS011;57850;52.922;6.256;2023-04-29T10:31:42;8.82;;;6.57;;
12467;SDS011;57850;52.922;6.256;2023-04-29T10:34:09;9.95;;;6.72;;
12467;SDS011;57850;52.922;6.256;2023-04-29T10:36:37;7.47;;;6.55;;
12467;SDS011;57850;52.922;6.256;2023-04-29T10:39:05;7.10;;;6.28;;
12467;SDS011;57850;52.922;6.256;2023-04-29T10:41:44;10.07;;;7.00;;
12467;SDS011;57850;52.922;6.256;2023-04-29T10:44:11;11.45;;;7.88;;
12467;SDS011;57850;52.922;6.256;2023-04-29T10:46:39;8.90;;;6.60;;
12467;SDS011;57850;52.922;6.256;2023-04-29T10:49:06;8.85;;;7.65;;
12467;SDS011;57850;52.922;6.256;2023-04-29T10:51:33;8.43;;;7.28;;
12467;SDS011;57850;52.922;6.256;2023-04-29T10:54:01;12.13;;;7.10;;
12467;SDS011;57850;52.922;6.256;2023-04-29T10:56:39;8.27;;;7.22;;
12467;SDS011;57850;52.922;6.256;2023-04-29T10:59:10;6.38;;;5.53;;
12467;SDS011;57850;52.922;6.256;2023-04-29T11:01:43;9.20;;;5.43;;
12467;SDS011;57850;52.922;6.256;2023-04-29T11:04:14;6.80;;;5.38;;
12467;SDS011;57850;52.922;6.256;2023-04-29T11:06:43;6.25;;;5.45;;
12467;SDS011;57850;52.922;6.256;2023-04-29T11:09:17;6.88;;;5.30;;
12467;SDS011;57850;52.922;6.256;2023-04-29T11:11:46;6.35;;;5.18;;
12467;SDS011;57850;52.922;6.256;2023-04-29T11:14:23;5.15;;;4.65;;
12467;SDS011;57850;52.922;6.256;2023-04-29T11:16:53;6.13;;;4.97;;
12467;SDS011;57850;52.922;6.256;2023-04-29T11:19:23;6.15;;;5.05;;
12467;SDS011;57850;52.922;6.256;2023-04-29T11:22:02;6.50;;;4.97;;
12467;SDS011;57850;52.922;6.256;2023-04-29T11:24:33;7.80;;;4.80;;
12467;SDS011;57850;52.922;6.256;2023-04-29T11:27:01;5.97;;;4.97;;
12467;SDS011;57850;52.922;6.256;2023-04-29T11:29:28;8.82;;;4.95;;
12467;SDS011;57850;52.922;6.256;2023-04-29T11:31:58;7.72;;;5.47;;
12467;SDS011;57850;52.922;6.256;2023-04-29T11:34:25;6.32;;;5.20;;
12467;SDS011;57850;52.922;6.256;2023-04-29T11:36:52;9.45;;;5.35;;
12467;SDS011;57850;52.922;6.256;2023-04-29T11:39:19;6.45;;;4.95;;
12467;SDS011;57850;52.922;6.256;2023-04-29T11:41:45;7.18;;;5.15;;
12467;SDS011;57850;52.922;6.256;2023-04-29T11:44:12;7.00;;;5.50;;
12467;SDS011;57850;52.922;6.256;2023-04-29T11:46:38;6.10;;;4.90;;
12467;SDS011;57850;52.922;6.256;2023-04-29T11:49:06;5.97;;;4.82;;
12467;SDS011;57850;52.922;6.256;2023-04-29T11:51:33;5.70;;;3.97;;
12467;SDS011;57850;52.922;6.256;2023-04-29T11:53:59;4.97;;;4.13;;
12467;SDS011;57850;52.922;6.256;2023-04-29T11:56:26;4.70;;;4.03;;
12467;SDS011;57850;52.922;6.256;2023-04-29T11:58:53;4.45;;;3.50;;
12467;SDS011;57850;52.922;6.256;2023-04-29T12:01:20;4.32;;;3.90;;
12467;SDS011;57850;52.922;6.256;2023-04-29T12:03:47;5.10;;;3.60;;
12467;SDS011;57850;52.922;6.256;2023-04-29T12:06:15;5.70;;;3.10;;
12467;SDS011;57850;52.922;6.256;2023-04-29T12:08:42;7.47;;;3.50;;
12467;SDS011;57850;52.922;6.256;2023-04-29T12:11:11;3.80;;;3.35;;
12467;SDS011;57850;52.922;6.256;2023-04-29T12:13:38;3.13;;;2.83;;
12467;SDS011;57850;52.922;6.256;2023-04-29T12:16:05;5.10;;;3.33;;
12467;SDS011;57850;52.922;6.256;2023-04-29T12:18:32;3.80;;;3.08;;
12467;SDS011;57850;52.922;6.256;2023-04-29T12:20:58;5.45;;;2.80;;
12467;SDS011;57850;52.922;6.256;2023-04-29T12:23:27;3.70;;;3.05;;
12467;SDS011;57850;52.922;6.256;2023-04-29T12:25:54;3.20;;;2.90;;
12467;SDS011;57850;52.922;6.256;2023-04-29T12:28:21;4.28;;;3.38;;
12467;SDS011;57850;52.922;6.256;2023-04-29T12:30:49;3.67;;;3.28;;
12467;SDS011;57850;52.922;6.256;2023-04-29T12:33:18;3.80;;;3.05;;
12467;SDS011;57850;52.922;6.256;2023-04-29T12:35:46;5.90;;;3.03;;
12467;SDS011;57850;52.922;6.256;2023-04-29T12:38:14;5.60;;;2.70;;
12467;SDS011;57850;52.922;6.256;2023-04-29T12:40:44;4.18;;;3.30;;
12467;SDS011;57850;52.922;6.256;2023-04-29T12:43:10;3.88;;;3.00;;
12467;SDS011;57850;52.922;6.256;2023-04-29T12:45:37;4.78;;;3.30;;
12467;SDS011;57850;52.922;6.256;2023-04-29T12:48:04;5.15;;;3.03;;
12467;SDS011;57850;52.922;6.256;2023-04-29T12:50:32;4.35;;;3.10;;
12467;SDS011;57850;52.922;6.256;2023-04-29T12:53:00;5.07;;;3.03;;
12467;SDS011;57850;52.922;6.256;2023-04-29T12:55:28;3.13;;;2.83;;
12467;SDS011;57850;52.922;6.256;2023-04-29T12:57:58;5.00;;;3.45;;
12467;SDS011;57850;52.922;6.256;2023-04-29T13:00:24;5.15;;;3.15;;
12467;SDS011;57850;52.922;6.256;2023-04-29T13:02:51;5.50;;;3.30;;
12467;SDS011;57850;52.922;6.256;2023-04-29T13:05:17;7.03;;;3.28;;
12467;SDS011;57850;52.922;6.256;2023-04-29T13:07:44;3.85;;;2.70;;
12467;SDS011;57850;52.922;6.256;2023-04-29T13:10:10;5.70;;;3.10;;
12467;SDS011;57850;52.922;6.256;2023-04-29T13:12:37;3.33;;;2.70;;
12467;SDS011;57850;52.922;6.256;2023-04-29T13:15:06;3.55;;;2.88;;
12467;SDS011;57850;52.922;6.256;2023-04-29T13:17:35;5.05;;;3.20;;
12467;SDS011;57850;52.922;6.256;2023-04-29T13:20:03;3.30;;;2.70;;
12467;SDS011;57850;52.922;6.256;2023-04-29T13:22:30;4.80;;;2.60;;
12467;SDS011;57850;52.922;6.256;2023-04-29T13:24:57;4.93;;;2.85;;
12467;SDS011;57850;52.922;6.256;2023-04-29T13:27:24;5.53;;;3.10;;
12467;SDS011;57850;52.922;6.256;2023-04-29T13:29:50;3.80;;;2.78;;
12467;SDS011;57850;52.922;6.256;2023-04-29T13:32:18;3.35;;;2.67;;
12467;SDS011;57850;52.922;6.256;2023-04-29T13:34:47;3.42;;;2.50;;
12467;SDS011;57850;52.922;6.256;2023-04-29T13:37:14;3.95;;;2.53;;
12467;SDS011;57850;52.922;6.256;2023-04-29T13:39:41;2.60;;;2.22;;
12467;SDS011;57850;52.922;6.256;2023-04-29T13:42:07;4.30;;;2.50;;
12467;SDS011;57850;52.922;6.256;2023-04-29T13:44:34;2.90;;;2.50;;
12467;SDS011;57850;52.922;6.256;2023-04-29T13:47:01;4.43;;;2.55;;
12467;SDS011;57850;52.922;6.256;2023-04-29T13:49:29;3.47;;;2.50;;
12467;SDS011;57850;52.922;6.256;2023-04-29T13:51:56;2.92;;;2.40;;
12467;SDS011;57850;52.922;6.256;2023-04-29T13:54:23;5.43;;;2.95;;
12467;SDS011;57850;52.922;6.256;2023-04-29T13:56:49;2.78;;;2.53;;
12467;SDS011;57850;52.922;6.256;2023-04-29T13:59:16;3.00;;;2.65;;
12467;SDS011;57850;52.922;6.256;2023-04-29T14:01:42;5.50;;;2.78;;
12467;SDS011;57850;52.922;6.256;2023-04-29T14:04:10;2.65;;;2.45;;
12467;SDS011;57850;52.922;6.256;2023-04-29T14:06:37;4.07;;;2.67;;
12467;SDS011;57850;52.922;6.256;2023-04-29T14:09:04;3.35;;;2.53;;
12467;SDS011;57850;52.922;6.256;2023-04-29T14:11:30;2.90;;;2.55;;
12467;SDS011;57850;52.922;6.256;2023-04-29T14:14:00;3.92;;;2.60;;
12467;SDS011;57850;52.922;6.256;2023-04-29T14:16:26;2.97;;;2.65;;
12467;SDS011;57850;52.922;6.256;2023-04-29T14:18:53;2.67;;;2.35;;
12467;SDS011;57850;52.922;6.256;2023-04-29T14:21:20;4.97;;;2.30;;
12467;SDS011;57850;52.922;6.256;2023-04-29T14:23:48;4.03;;;2.63;;
12467;SDS011;57850;52.922;6.256;2023-04-29T14:26:15;2.70;;;2.50;;
12467;SDS011;57850;52.922;6.256;2023-04-29T14:28:42;5.13;;;3.17;;
12467;SDS011;57850;52.922;6.256;2023-04-29T14:31:09;4.63;;;2.88;;
12467;SDS011;57850;52.922;6.256;2023-04-29T14:33:37;3.10;;;2.67;;
12467;SDS011;57850;52.922;6.256;2023-04-29T14:36:04;3.53;;;2.90;;